createdAt,value
2018-09-18T00:01:31.283Z,76.70
2018-09-18T00:04:01.337Z,76.70
2018-09-18T00:06:30.522Z,76.70
2018-09-18T00:08:59.080Z,76.80
2018-09-18T00:11:31.329Z,76.90
2018-09-18T00:13:59.866Z,76.90
2018-09-18T00:16:28.445Z,76.90
2018-09-18T00:18:57.009Z,76.90
2018-09-18T00:21:25.553Z,76.80
2018-09-18T00:23:54.190Z,76.90
2018-09-18T00:26:22.769Z,77.00
2018-09-18T00:28:52.501Z,76.90
2018-09-18T00:31:21.080Z,77.00
2018-09-18T00:33:49.612Z,77.10
2018-09-18T00:36:18.184Z,77.20
2018-09-18T00:38:47.025Z,77.40
2018-09-18T00:41:16.534Z,77.50
2018-09-18T00:43:45.155Z,77.50
2018-09-18T00:46:13.705Z,77.70
2018-09-18T00:48:42.288Z,77.70
2018-09-18T00:51:12.821Z,77.70
2018-09-18T00:53:45.456Z,77.70
2018-09-18T00:56:15.113Z,77.70
2018-09-18T00:58:43.724Z,77.70
2018-09-18T01:01:12.349Z,77.70
2018-09-18T01:03:44.073Z,77.70
2018-09-18T01:06:12.740Z,77.70
2018-09-18T01:08:41.413Z,77.60
2018-09-18T01:11:17.373Z,77.70
2018-09-18T01:13:47.084Z,77.70
2018-09-18T01:16:19.757Z,77.90
2018-09-18T01:18:52.169Z,78.00
2018-09-18T01:21:26.484Z,77.80
2018-09-18T01:23:55.321Z,77.70
2018-09-18T01:26:28.025Z,77.60
2018-09-18T01:28:56.585Z,77.50
2018-09-18T01:31:28.841Z,77.50
2018-09-18T01:33:57.457Z,77.50
2018-09-18T01:36:29.413Z,77.50
2018-09-18T01:39:01.204Z,77.60
2018-09-18T01:41:30.032Z,77.60
2018-09-18T01:43:58.577Z,77.70
2018-09-18T01:46:32.597Z,77.70
2018-09-18T01:49:01.165Z,77.80
2018-09-18T01:51:29.698Z,77.80
2018-09-18T01:53:58.232Z,77.90
2018-09-18T01:56:27.314Z,77.90
2018-09-18T01:58:56.656Z,77.80
2018-09-18T02:01:25.269Z,77.90
2018-09-18T02:03:53.825Z,78.00
2018-09-18T02:06:22.389Z,78.10
2018-09-18T02:08:50.929Z,78.00
2018-09-18T02:11:24.322Z,78.10
2018-09-18T02:13:58.849Z,78.00
2018-09-18T02:16:29.457Z,78.00
2018-09-18T02:18:58.177Z,78.00
2018-09-18T02:21:26.760Z,77.90
2018-09-18T02:23:55.294Z,77.90
2018-09-18T02:26:23.880Z,77.90
2018-09-18T02:28:52.517Z,77.90
2018-09-18T02:31:21.125Z,77.80
2018-09-18T02:33:49.700Z,77.80
2018-09-18T02:36:18.251Z,78.00
2018-09-18T02:38:46.832Z,78.00
2018-09-18T02:41:15.456Z,77.90
2018-09-18T02:43:44.001Z,77.80
2018-09-18T02:46:12.897Z,77.80
2018-09-18T02:48:41.637Z,77.70
2018-09-18T02:51:10.493Z,77.50
2018-09-18T02:53:39.249Z,77.50
2018-09-18T02:56:07.848Z,77.40
2018-09-18T02:58:36.449Z,77.20
2018-09-18T03:01:05.052Z,77.20
2018-09-18T03:03:33.613Z,77.20
2018-09-18T03:06:02.161Z,77.10
2018-09-18T03:08:30.709Z,77.00
2018-09-18T03:10:59.279Z,76.80
2018-09-18T03:13:28.317Z,76.70
2018-09-18T03:15:56.874Z,76.60
2018-09-18T03:18:25.463Z,76.60
2018-09-18T03:20:54.241Z,76.40
2018-09-18T03:23:22.783Z,76.40
2018-09-18T03:25:52.268Z,76.40
2018-09-18T03:28:20.885Z,76.40
2018-09-18T03:30:49.557Z,76.40
2018-09-18T03:33:18.169Z,76.40
2018-09-18T03:35:46.799Z,76.40
2018-09-18T03:38:16.328Z,76.40
2018-09-18T03:40:44.912Z,76.40
2018-09-18T03:43:13.465Z,76.20
2018-09-18T03:45:42.025Z,76.20
2018-09-18T03:48:10.616Z,76.10
2018-09-18T03:50:39.188Z,76.10
2018-09-18T03:53:07.848Z,76.20
2018-09-18T03:55:36.389Z,76.20
2018-09-18T03:58:04.961Z,76.30
2018-09-18T04:00:33.548Z,76.30
2018-09-18T04:03:02.125Z,76.30
2018-09-18T04:05:30.669Z,76.20
2018-09-18T04:07:59.240Z,76.20
2018-09-18T04:10:27.869Z,76.30
2018-09-18T04:12:56.432Z,76.40
2018-09-18T04:15:25.076Z,76.40
2018-09-18T04:17:54.129Z,76.40
2018-09-18T04:20:22.873Z,76.40
2018-09-18T04:22:51.413Z,76.50
2018-09-18T04:25:20.049Z,76.50
2018-09-18T04:27:48.661Z,77.40
2018-09-18T04:30:17.248Z,76.60
2018-09-18T04:32:45.836Z,76.60
2018-09-18T04:35:15.448Z,76.60
2018-09-18T04:37:44.040Z,76.70
2018-09-18T04:40:12.671Z,77.00
2018-09-18T04:42:41.331Z,76.90
2018-09-18T04:45:09.915Z,77.70
2018-09-18T04:47:39.584Z,77.70
2018-09-18T04:50:08.172Z,77.60
2018-09-18T04:52:36.794Z,77.50
2018-09-18T04:55:05.474Z,77.50
2018-09-18T04:57:34.092Z,77.50
2018-09-18T05:00:03.736Z,77.50
2018-09-18T05:02:32.348Z,77.40
2018-09-18T05:05:00.970Z,77.40
2018-09-18T05:07:29.591Z,77.50
2018-09-18T05:09:58.259Z,77.40
2018-09-18T05:12:26.862Z,77.40
2018-09-18T05:14:55.493Z,77.30
2018-09-18T05:17:24.136Z,77.30
2018-09-18T05:19:52.899Z,77.30
2018-09-18T05:22:21.565Z,77.30
2018-09-18T05:24:50.216Z,77.30
2018-09-18T05:27:18.826Z,77.30
2018-09-18T05:29:47.448Z,77.10
2018-09-18T05:32:16.061Z,77.10
2018-09-18T05:34:44.643Z,77.20
2018-09-18T05:37:13.257Z,77.40
2018-09-18T05:39:41.843Z,77.40
2018-09-18T05:42:10.432Z,77.30
2018-09-18T05:44:39.183Z,77.20
2018-09-18T05:47:08.523Z,77.10
2018-09-18T05:49:37.255Z,77.00
2018-09-18T05:52:06.019Z,76.80
2018-09-18T05:54:34.635Z,77.50
2018-09-18T05:57:03.271Z,76.40
2018-09-18T05:59:31.919Z,76.10
2018-09-18T06:02:00.585Z,75.90
2018-09-18T06:04:29.332Z,75.60
2018-09-18T06:06:58.148Z,75.40
2018-09-18T06:09:28.109Z,75.10
2018-09-18T06:11:56.732Z,74.80
2018-09-18T06:14:25.391Z,74.60
2018-09-18T06:16:54.015Z,74.30
2018-09-18T06:19:22.872Z,74.00
2018-09-18T06:21:52.244Z,73.80
2018-09-18T06:24:21.044Z,73.50
2018-09-18T06:26:49.671Z,72.70
2018-09-18T06:29:18.363Z,72.50
2018-09-18T06:31:46.990Z,72.20
2018-09-18T06:34:16.563Z,72.00
2018-09-18T06:36:45.238Z,71.70
2018-09-18T06:39:13.856Z,71.40
2018-09-18T06:41:42.531Z,71.10
2018-09-18T06:44:11.131Z,70.70
2018-09-18T06:46:41.280Z,70.40
2018-09-18T06:49:13.113Z,70.10
2018-09-18T06:51:42.312Z,69.70
2018-09-18T06:54:10.923Z,69.60
2018-09-18T06:56:39.508Z,69.40
2018-09-18T06:59:09.107Z,69.30
2018-09-18T07:01:37.713Z,68.90
2018-09-18T07:04:06.347Z,68.50
2018-09-18T07:06:35.030Z,68.30
2018-09-18T07:09:04.436Z,68.20
2018-09-18T07:11:33.955Z,68.00
2018-09-18T07:14:02.711Z,67.90
2018-09-18T07:16:31.345Z,68.00
2018-09-18T07:19:00.011Z,68.00
2018-09-18T07:21:28.632Z,68.10
2018-09-18T07:23:58.311Z,68.10
2018-09-18T07:26:26.918Z,68.10
2018-09-18T07:28:55.583Z,68.90
2018-09-18T07:31:24.227Z,67.90
2018-09-18T07:33:55.138Z,67.80
2018-09-18T07:36:25.415Z,68.00
2018-09-18T07:38:54.091Z,68.00
2018-09-18T07:41:22.727Z,67.90
2018-09-18T07:43:51.413Z,67.70
2018-09-18T07:46:20.258Z,67.40
2018-09-18T07:48:50.335Z,67.20
2018-09-18T07:51:19.003Z,66.70
2018-09-18T07:53:47.619Z,66.20
2018-09-18T07:56:16.246Z,65.50
2018-09-18T07:58:44.851Z,65.10
2018-09-18T08:01:14.353Z,64.50
2018-09-18T08:03:42.983Z,63.90
2018-09-18T08:06:11.579Z,63.50
2018-09-18T08:08:40.252Z,63.20
2018-09-18T08:11:08.906Z,63.10
2018-09-18T08:13:37.545Z,63.20
2018-09-18T08:16:09.766Z,63.50
2018-09-18T08:18:41.961Z,64.00
2018-09-18T08:21:10.678Z,64.00
2018-09-18T08:23:41.495Z,63.60
2018-09-18T08:26:10.128Z,63.20
2018-09-18T08:28:38.737Z,62.50
2018-09-18T08:31:07.397Z,62.00
2018-09-18T08:33:36.996Z,61.60
2018-09-18T08:36:05.655Z,60.90
2018-09-18T08:38:34.451Z,60.20
2018-09-18T08:41:03.344Z,59.60
2018-09-18T08:43:33.784Z,59.10
2018-09-18T08:46:03.439Z,58.90
2018-09-18T08:48:32.792Z,58.60
2018-09-18T08:51:01.987Z,58.10
2018-09-18T08:53:31.656Z,57.90
2018-09-18T08:56:00.339Z,57.80
2018-09-18T08:58:29.216Z,57.80
2018-09-18T09:00:57.859Z,57.70
2018-09-18T09:03:26.603Z,57.70
2018-09-18T09:05:55.376Z,57.50
2018-09-18T09:08:23.963Z,57.70
2018-09-18T09:10:55.297Z,57.80
2018-09-18T09:13:25.575Z,56.40
2018-09-18T09:15:54.240Z,56.70
2018-09-18T09:18:23.072Z,56.90
2018-09-18T09:20:51.731Z,56.90
2018-09-18T09:23:20.377Z,56.90
2018-09-18T09:25:49.039Z,56.90
2018-09-18T09:28:17.722Z,57.10
2018-09-18T09:30:46.384Z,57.10
2018-09-18T09:33:15.112Z,57.30
2018-09-18T09:35:43.703Z,57.80
2018-09-18T09:38:12.462Z,58.20
2018-09-18T09:40:42.364Z,58.20
2018-09-18T09:43:11.955Z,58.30
2018-09-18T09:45:40.664Z,58.30
2018-09-18T09:48:09.388Z,58.00
2018-09-18T09:50:38.053Z,57.70
2018-09-18T09:53:07.649Z,57.60
2018-09-18T09:55:36.408Z,57.60
2018-09-18T09:58:05.121Z,57.50
2018-09-18T10:00:45.645Z,57.90
2018-09-18T10:03:14.703Z,56.90
2018-09-18T10:05:43.612Z,56.80
2018-09-18T10:08:12.329Z,56.70
2018-09-18T10:10:42.003Z,56.90
2018-09-18T10:13:10.635Z,57.10
2018-09-18T10:15:39.433Z,57.10
2018-09-18T10:18:08.187Z,57.10
2018-09-18T10:20:36.904Z,57.10
2018-09-18T10:23:05.555Z,57.10
2018-09-18T10:25:34.230Z,57.00
2018-09-18T10:28:02.932Z,56.80
2018-09-18T10:30:31.872Z,56.50
2018-09-18T10:33:00.565Z,56.10
2018-09-18T10:35:29.247Z,55.80
2018-09-18T10:37:58.023Z,55.50
2018-09-18T10:40:26.675Z,55.20
2018-09-18T10:42:55.504Z,54.90
2018-09-18T10:45:24.188Z,54.80
2018-09-18T10:47:52.912Z,54.70
2018-09-18T10:50:21.524Z,54.50
2018-09-18T10:52:50.420Z,54.40
2018-09-18T10:55:19.131Z,54.40
2018-09-18T10:57:47.794Z,54.40
2018-09-18T11:00:16.753Z,54.30
2018-09-18T11:02:45.451Z,54.30
2018-09-18T11:05:14.399Z,54.50
2018-09-18T11:07:43.126Z,54.50
2018-09-18T11:10:11.792Z,54.50
2018-09-18T11:12:40.421Z,54.50
2018-09-18T11:15:09.151Z,54.70
2018-09-18T11:17:37.796Z,54.80
2018-09-18T11:20:07.479Z,54.60
2018-09-18T11:22:36.353Z,54.50
2018-09-18T11:25:05.591Z,54.40
2018-09-18T11:27:34.292Z,54.30
2018-09-18T11:30:02.920Z,54.30
2018-09-18T11:32:32.599Z,54.20
2018-09-18T11:35:01.418Z,54.20
2018-09-18T11:37:30.076Z,54.00
2018-09-18T11:39:59.816Z,53.80
2018-09-18T11:42:28.539Z,53.50
2018-09-18T11:44:58.178Z,53.50
2018-09-18T11:47:26.884Z,53.40
2018-09-18T11:49:55.760Z,53.50
2018-09-18T11:52:24.416Z,53.40
2018-09-18T11:54:53.119Z,53.20
2018-09-18T11:57:22.739Z,52.90
2018-09-18T11:59:51.511Z,52.60
2018-09-18T12:02:20.140Z,52.30
2018-09-18T12:04:48.945Z,52.20
2018-09-18T12:07:19.320Z,52.10
2018-09-18T12:09:48.995Z,52.10
2018-09-18T12:12:17.627Z,52.10
2018-09-18T12:14:46.269Z,52.20
2018-09-18T12:17:15.062Z,52.50
